Time;durP1;ratioP1;P1;durP2;ratioP2;P2;SDS_P1;SDS_P2;PMS_P1;PMS_P2;Temp;Humidity;BMP_temperature;BMP_pressure;BME280_temperature;BME280_humidity;BME280_pressure;Samples;Min_cycle;Max_cycle;Signal;HPM_P1;HPM_P2
2021/01/08 00:01:28;;;;;;;3.83;3.00;;;3.80;97.40;;;;;;4983736;28;20022;-42
2021/01/08 00:03:53;;;;;;;2.95;2.65;;;3.80;97.40;;;;;;4985639;28;20070;-43
2021/01/08 00:06:19;;;;;;;4.57;2.75;;;3.80;97.40;;;;;;4979726;28;20400;-44
2021/01/08 00:08:45;;;;;;;3.40;3.00;;;3.80;97.50;;;;;;4987534;28;20470;-43
2021/01/08 00:11:10;;;;;;;3.65;3.33;;;3.80;97.50;;;;;;4975070;28;20041;-43
2021/01/08 00:13:36;;;;;;;3.40;3.10;;;3.70;97.50;;;;;;4987115;28;20052;-42
2021/01/08 00:16:02;;;;;;;3.28;2.95;;;3.70;97.60;;;;;;4978314;28;20026;-42
2021/01/08 00:18:27;;;;;;;3.17;2.88;;;3.70;97.60;;;;;;4988376;28;20030;-42
2021/01/08 00:20:53;;;;;;;3.78;3.38;;;3.70;97.60;;;;;;4976351;28;20057;-43
2021/01/08 00:23:18;;;;;;;3.63;2.90;;;3.70;97.60;;;;;;4988272;28;20493;-42
2021/01/08 00:25:50;;;;;;;3.78;2.90;;;3.70;97.60;;;;;;4975963;28;20027;-43
2021/01/08 00:28:15;;;;;;;3.67;2.60;;;3.70;97.60;;;;;;4988329;28;20062;-42
2021/01/08 00:30:41;;;;;;;2.95;2.65;;;3.80;97.60;;;;;;4977135;28;20062;-43
2021/01/08 00:33:06;;;;;;;3.08;2.75;;;3.80;97.60;;;;;;4987353;28;20049;-42
2021/01/08 00:35:32;;;;;;;2.95;2.67;;;3.80;97.50;;;;;;4980185;28;20475;-43
2021/01/08 00:37:57;;;;;;;2.55;2.35;;;3.80;97.50;;;;;;4983991;28;20030;-42
2021/01/08 00:40:23;;;;;;;2.80;2.58;;;3.80;97.50;;;;;;4982319;28;20022;-42
2021/01/08 00:42:48;;;;;;;2.78;2.58;;;3.80;97.40;;;;;;4982005;28;20479;-42
2021/01/08 00:45:14;;;;;;;3.40;3.10;;;3.80;97.40;;;;;;4983974;28;20030;-44
2021/01/08 00:47:40;;;;;;;4.47;2.80;;;3.80;97.50;;;;;;4979311;28;20066;-43
2021/01/08 00:50:06;;;;;;;2.75;2.53;;;3.80;97.50;;;;;;4987177;28;20122;-42
2021/01/08 00:52:31;;;;;;;2.95;2.65;;;3.80;97.50;;;;;;4976272;28;20474;-43
2021/01/08 00:54:57;;;;;;;2.47;2.28;;;3.80;97.50;;;;;;4986839;28;20026;-43
2021/01/08 00:57:22;;;;;;;2.60;2.13;;;3.80;97.50;;;;;;4976992;28;20125;-43
2021/01/08 00:59:48;;;;;;;2.40;2.17;;;3.90;97.40;;;;;;4987705;28;20034;-42
2021/01/08 01:02:13;;;;;;;2.23;2.03;;;3.90;97.40;;;;;;4957684;28;512373;-42
2021/01/08 01:04:39;;;;;;;3.00;2.50;;;3.90;97.40;;;;;;4989107;28;20050;-42
2021/01/08 01:07:04;;;;;;;2.50;2.30;;;3.90;97.40;;;;;;4976519;28;20031;-42
2021/01/08 01:09:30;;;;;;;2.88;2.40;;;3.90;97.40;;;;;;4988429;28;20030;-42
2021/01/08 01:11:55;;;;;;;3.42;3.03;;;4.00;97.40;;;;;;4978074;28;20257;-43
2021/01/08 01:14:21;;;;;;;4.03;3.00;;;4.00;97.30;;;;;;4985640;28;20026;-42
2021/01/08 01:16:46;;;;;;;3.63;2.92;;;4.00;97.30;;;;;;4981588;28;20027;-42
2021/01/08 01:19:12;;;;;;;3.38;3.08;;;3.90;97.30;;;;;;4983425;28;20577;-43
2021/01/08 01:21:37;;;;;;;3.00;2.70;;;3.90;97.30;;;;;;4983584;28;20029;-43
2021/01/08 01:24:03;;;;;;;3.10;2.80;;;3.90;97.40;;;;;;4981135;28;20050;-42
2021/01/08 01:26:29;;;;;;;3.20;2.65;;;3.90;97.40;;;;;;4985617;28;20847;-42
2021/01/08 01:28:54;;;;;;;3.17;2.83;;;3.80;97.40;;;;;;4978491;28;20029;-43
2021/01/08 01:31:20;;;;;;;5.00;3.50;;;3.80;97.40;;;;;;4986661;28;20058;-43
2021/01/08 01:33:45;;;;;;;3.42;3.08;;;3.80;97.50;;;;;;4977640;28;20537;-43
2021/01/08 01:36:11;;;;;;;3.90;3.30;;;3.80;97.50;;;;;;4987621;28;20038;-43
2021/01/08 01:38:37;;;;;;;3.45;3.15;;;3.80;97.50;;;;;;4976703;28;20068;-44
2021/01/08 01:41:03;;;;;;;3.75;3.30;;;3.80;97.60;;;;;;4988366;28;20026;-43
2021/01/08 01:43:29;;;;;;;6.28;3.47;;;3.70;97.60;;;;;;4975578;28;20208;-43
2021/01/08 01:45:55;;;;;;;3.20;2.90;;;3.80;97.60;;;;;;4988460;28;20106;-43
2021/01/08 01:48:21;;;;;;;4.00;2.90;;;3.80;97.60;;;;;;4975832;28;20027;-43
2021/01/08 01:50:47;;;;;;;3.08;2.78;;;3.80;97.60;;;;;;4987527;28;20026;-42
2021/01/08 01:53:13;;;;;;;4.18;3.20;;;3.80;97.60;;;;;;4978457;28;20038;-42
2021/01/08 01:55:39;;;;;;;3.80;3.17;;;3.90;97.60;;;;;;4984584;28;20176;-42
2021/01/08 01:58:05;;;;;;;3.63;3.33;;;3.90;97.50;;;;;;4981629;28;20027;-43
2021/01/08 02:00:31;;;;;;;3.40;3.10;;;3.80;97.50;;;;;;4982189;28;20104;-43
2021/01/08 02:03:24;;;;;;;3.85;3.33;;;3.80;97.50;;;;;;4985914;28;20089;-43
2021/01/08 02:05:53;;;;;;;;;;;3.80;97.50;;;;;;4973379;28;20039;-43
2021/01/08 02:08:23;;;;;;;4.72;3.17;;;3.70;97.50;;;;;;4974131;28;19906;-43
2021/01/08 02:10:58;;;;;;;3.65;3.33;;;3.70;97.50;;;;;;4987562;28;20454;-43
2021/01/08 02:13:32;;;;;;;3.40;3.10;;;3.70;97.60;;;;;;4982259;28;20514;-44
2021/01/08 02:15:58;;;;;;;3.38;3.08;;;3.60;97.60;;;;;;4981848;28;20037;-43
2021/01/08 02:18:26;;;;;;;4.07;3.40;;;3.60;97.90;;;;;;4982746;28;20035;-44
2021/01/08 02:20:55;;;;;;;3.88;3.10;;;3.60;97.70;;;;;;4979927;28;20028;-43
2021/01/08 02:23:41;;;;;;;4.13;3.15;;;3.60;97.70;;;;;;4984399;28;20463;-43
2021/01/08 02:26:07;;;;;;;3.47;3.17;;;3.60;97.70;;;;;;4979855;28;20092;-43
2021/01/08 02:28:33;;;;;;;3.42;3.10;;;3.60;97.70;;;;;;4984774;28;20081;-43
2021/01/08 02:31:00;;;;;;;3.83;2.75;;;3.60;97.70;;;;;;4977300;28;20027;-43
2021/01/08 02:33:26;;;;;;;3.15;2.63;;;3.60;97.70;;;;;;4985411;28;20090;-43
2021/01/08 02:35:52;;;;;;;3.38;3.08;;;3.60;97.70;;;;;;4976807;28;20034;-43
2021/01/08 02:38:20;;;;;;;3.13;2.70;;;3.60;97.80;;;;;;4986121;28;20049;-43
2021/01/08 02:40:48;;;;;;;4.22;2.80;;;3.60;97.80;;;;;;4976469;28;20030;-43
2021/01/08 02:43:18;;;;;;;2.72;2.45;;;3.60;97.80;;;;;;4987094;28;20048;-42
2021/01/08 02:45:43;;;;;;;3.05;2.60;;;3.50;97.80;;;;;;4975031;28;20073;-43
2021/01/08 02:48:10;;;;;;;3.15;2.85;;;3.50;97.80;;;;;;4987722;28;20084;-43
2021/01/08 02:50:35;;;;;;;2.88;2.60;;;3.60;97.80;;;;;;4974428;28;20282;-43
2021/01/08 02:53:05;;;;;;;3.00;2.47;;;3.60;97.90;;;;;;4987564;28;20489;-43
2021/01/08 02:55:33;;;;;;;2.80;2.55;;;3.60;97.80;;;;;;4975961;28;20027;-43
2021/01/08 02:58:00;;;;;;;3.00;2.70;;;3.60;97.80;;;;;;4986339;28;20037;-43
2021/01/08 03:00:33;;;;;;;2.83;2.40;;;3.60;97.80;;;;;;4977939;28;20026;-43
2021/01/08 03:03:01;;;;;;;2.67;2.40;;;3.60;98.00;;;;;;4984962;28;20046;-42
2021/01/08 03:05:28;;;;;;;2.70;2.50;;;3.70;97.80;;;;;;4978923;28;20149;-42
2021/01/08 03:07:55;;;;;;;3.03;2.28;;;3.70;97.80;;;;;;4983824;28;20037;-43
2021/01/08 03:10:21;;;;;;;3.35;2.80;;;3.70;97.70;;;;;;4981105;28;20026;-43
2021/01/08 03:12:53;;;;;;;3.17;2.55;;;3.80;97.70;;;;;;4979789;28;20041;-42
2021/01/08 03:15:18;;;;;;;3.28;2.97;;;3.80;97.60;;;;;;4982965;28;20026;-41
2021/01/08 03:17:44;;;;;;;3.85;3.00;;;3.80;97.60;;;;;;4979167;28;20035;-42
2021/01/08 03:20:10;;;;;;;3.22;2.75;;;3.80;97.50;;;;;;4985187;28;20025;-42
2021/01/08 03:22:36;;;;;;;3.15;2.80;;;3.80;97.50;;;;;;4976081;28;20611;-42
2021/01/08 03:25:01;;;;;;;3.30;3.00;;;3.70;97.60;;;;;;4986053;28;20114;-42
2021/01/08 03:27:27;;;;;;;2.92;2.30;;;3.70;97.60;;;;;;4977908;28;20023;-42
2021/01/08 03:29:52;;;;;;;3.15;2.60;;;3.80;97.60;;;;;;4967747;28;20035;-42
2021/01/08 03:32:18;;;;;;;2.85;2.65;;;3.80;97.60;;;;;;4974586;28;20030;-43
2021/01/08 03:34:43;;;;;;;3.78;3.10;;;3.70;97.60;;;;;;4987755;28;20033;-43
2021/01/08 03:37:09;;;;;;;3.08;2.83;;;3.70;97.50;;;;;;4978180;28;20035;-43
2021/01/08 03:39:34;;;;;;;3.83;3.08;;;3.70;97.60;;;;;;4990785;28;20029;-43
2021/01/08 03:42:00;;;;;;;4.22;3.20;;;3.70;97.60;;;;;;4979964;28;20023;-43
2021/01/08 03:44:25;;;;;;;3.53;2.75;;;3.70;97.60;;;;;;4988376;28;20363;-43
2021/01/08 03:46:50;;;;;;;2.75;2.55;;;3.70;97.60;;;;;;4983097;28;20019;-43
2021/01/08 03:49:16;;;;;;;3.28;2.97;;;3.70;97.60;;;;;;4985223;28;20493;-43
2021/01/08 03:51:41;;;;;;;3.20;2.90;;;3.70;97.60;;;;;;4985154;28;20027;-43
2021/01/08 03:54:07;;;;;;;2.90;2.60;;;3.70;97.60;;;;;;4983508;28;20030;-43
2021/01/08 03:56:32;;;;;;;3.55;3.20;;;3.70;97.60;;;;;;4986993;28;20045;-43
2021/01/08 03:58:58;;;;;;;2.78;2.58;;;3.70;97.60;;;;;;4980725;28;20117;-43
2021/01/08 04:01:23;;;;;;;2.97;2.55;;;3.80;97.60;;;;;;4988459;28;20041;-43
2021/01/08 04:03:51;;;;;;;2.97;2.55;;;3.80;97.60;;;;;;4978659;28;20073;-43
2021/01/08 04:06:17;;;;;;;3.55;3.25;;;3.80;97.60;;;;;;4988619;28;20058;-42
2021/01/08 04:08:42;;;;;;;3.95;3.45;;;3.80;97.80;;;;;;4978669;28;20101;-43
2021/01/08 04:11:08;;;;;;;3.20;2.90;;;3.70;97.50;;;;;;4989983;28;20169;-43
2021/01/08 04:13:33;;;;;;;3.20;2.90;;;3.70;97.60;;;;;;4977405;28;20026;-41
2021/01/08 04:15:59;;;;;;;3.70;3.40;;;3.80;97.60;;;;;;4989837;28;20765;-43
2021/01/08 04:18:24;;;;;;;3.25;2.95;;;3.80;97.50;;;;;;4977583;28;20066;-43
2021/01/08 04:20:50;;;;;;;3.15;2.85;;;3.70;97.50;;;;;;4989835;28;20022;-43
2021/01/08 04:23:16;;;;;;;2.90;2.65;;;3.70;97.50;;;;;;4979178;28;20023;-43
2021/01/08 04:25:41;;;;;;;2.88;2.38;;;3.70;97.60;;;;;;4986803;28;20031;-43
2021/01/08 04:28:07;;;;;;;2.60;2.20;;;3.80;97.60;;;;;;4983079;28;20591;-43
2021/01/08 04:30:32;;;;;;;2.80;2.50;;;3.80;97.60;;;;;;4983575;28;20069;-42
2021/01/08 04:32:58;;;;;;;2.92;2.63;;;3.90;97.60;;;;;;4984946;28;20030;-42
2021/01/08 04:35:23;;;;;;;3.17;2.67;;;3.80;97.50;;;;;;4981294;28;20029;-44
2021/01/08 04:37:49;;;;;;;2.97;2.47;;;3.90;97.50;;;;;;4987801;28;20030;-42
2021/01/08 04:40:14;;;;;;;3.65;2.20;;;3.90;97.50;;;;;;4978452;28;20092;-42
2021/01/08 04:42:40;;;;;;;1.98;1.85;;;3.90;97.50;;;;;;4987254;28;20029;-43
2021/01/08 04:45:06;;;;;;;3.75;2.33;;;3.90;97.40;;;;;;4978314;28;20027;-43
2021/01/08 04:47:33;;;;;;;2.42;2.05;;;4.00;97.40;;;;;;4987021;28;20494;-43
2021/01/08 04:50:01;;;;;;;2.17;1.90;;;3.90;97.40;;;;;;4977085;28;20022;-43
2021/01/08 04:52:27;;;;;;;3.35;2.30;;;4.00;97.40;;;;;;4988413;28;20042;-43
2021/01/08 04:54:53;;;;;;;2.13;1.92;;;3.90;97.30;;;;;;4977023;28;20089;-43
2021/01/08 04:57:23;;;;;;;2.20;1.98;;;3.90;97.30;;;;;;4988618;28;20489;-43
2021/01/08 04:59:49;;;;;;;2.60;2.40;;;3.90;97.40;;;;;;4976488;28;20074;-43
2021/01/08 05:02:15;;;;;;;2.60;2.40;;;3.90;97.30;;;;;;4968820;28;20446;-43
2021/01/08 05:04:42;;;;;;;2.40;2.20;;;3.80;97.30;;;;;;4973811;28;20023;-43
2021/01/08 05:07:07;;;;;;;2.92;2.55;;;3.80;97.30;;;;;;4986000;28;20030;-44
2021/01/08 05:09:33;;;;;;;2.42;2.22;;;3.80;97.40;;;;;;4981064;28;20037;-43
2021/01/08 05:12:00;;;;;;;2.33;2.13;;;3.80;97.40;;;;;;4983620;28;20035;-43
2021/01/08 05:14:26;;;;;;;2.42;2.22;;;3.80;97.50;;;;;;4982989;28;20022;-43
2021/01/08 05:16:55;;;;;;;2.13;2.00;;;3.80;97.50;;;;;;4981717;28;20493;-43
2021/01/08 05:19:23;;;;;;;2.25;2.05;;;3.80;97.50;;;;;;4984528;28;20018;-43
2021/01/08 05:21:50;;;;;;;2.50;2.30;;;3.80;97.40;;;;;;4979463;28;20054;-42
2021/01/08 05:24:16;;;;;;;3.10;2.45;;;3.80;97.40;;;;;;4986330;28;20482;-42
2021/01/08 05:26:41;;;;;;;2.53;2.33;;;3.80;97.40;;;;;;4977558;28;20034;-43
2021/01/08 05:29:07;;;;;;;2.70;2.28;;;3.80;97.40;;;;;;4987009;28;20033;-42
2021/01/08 05:31:34;;;;;;;2.25;2.05;;;3.80;97.40;;;;;;4977010;28;20050;-42
2021/01/08 05:34:00;;;;;;;3.22;2.00;;;3.80;97.40;;;;;;4988076;28;20125;-41
2021/01/08 05:36:26;;;;;;;2.08;1.88;;;3.80;97.40;;;;;;4975293;28;20389;-42
2021/01/08 05:38:57;;;;;;;2.85;2.28;;;3.80;97.40;;;;;;4988782;28;20030;-42
2021/01/08 05:41:23;;;;;;;2.72;2.00;;;3.80;97.40;;;;;;4974968;28;20065;-43
2021/01/08 05:43:49;;;;;;;2.65;2.20;;;3.80;97.40;;;;;;4988163;28;20058;-43
2021/01/08 05:46:19;;;;;;;3.75;2.22;;;3.80;97.40;;;;;;4976236;28;20050;-43
2021/01/08 05:48:47;;;;;;;2.40;2.20;;;3.80;97.40;;;;;;4987510;28;20042;-43
2021/01/08 05:51:15;;;;;;;2.10;1.90;;;3.90;97.40;;;;;;4977841;28;20131;-43
2021/01/08 05:53:42;;;;;;;2.25;2.00;;;3.90;97.40;;;;;;4985690;28;20045;-42
2021/01/08 05:56:13;;;;;;;2.25;2.03;;;3.90;97.40;;;;;;4980221;28;20023;-43
2021/01/08 05:58:39;;;;;;;2.60;2.28;;;3.90;97.30;;;;;;4983761;28;20034;-43
2021/01/08 06:01:05;;;;;;;1.75;1.65;;;4.00;97.30;;;;;;4982092;28;20625;-42
2021/01/08 06:03:31;;;;;;;2.00;1.83;;;3.90;97.30;;;;;;4980621;28;20069;-42
2021/01/08 06:06:01;;;;;;;2.33;1.90;;;3.90;97.30;;;;;;4984493;28;20359;-43
2021/01/08 06:08:39;;;;;;;2.00;1.80;;;3.90;97.30;;;;;;4979021;28;20456;-42
2021/01/08 06:11:09;;;;;;;2.72;1.85;;;4.00;97.30;;;;;;4984765;28;20763;-42
2021/01/08 06:13:35;;;;;;;2.22;1.85;;;4.00;97.30;;;;;;4978888;28;20429;-41
2021/01/08 06:16:02;;;;;;;2.30;2.10;;;4.00;97.30;;;;;;4983703;28;20030;-44
2021/01/08 06:18:28;;;;;;;2.45;1.98;;;4.00;97.30;;;;;;4978672;28;20031;-42
2021/01/08 06:21:03;;;;;;;3.38;2.33;;;4.00;97.30;;;;;;4969539;28;20512;-42
2021/01/08 06:23:42;;;;;;;2.50;2.30;;;4.00;97.20;;;;;;4978016;28;20023;-43
2021/01/08 06:26:16;;;;;;;2.92;2.47;;;4.00;97.20;;;;;;4969342;28;20025;-43
2021/01/08 06:28:42;;;;;;;2.58;2.33;;;3.90;97.20;;;;;;4979329;28;20034;-43
2021/01/08 06:31:21;;;;;;;2.42;2.22;;;4.00;97.20;;;;;;4968288;28;20101;-43
2021/01/08 06:33:55;;;;;;;2.78;2.58;;;3.90;97.20;;;;;;4975844;28;20711;-44
2021/01/08 06:36:29;;;;;;;3.08;2.35;;;3.90;97.30;;;;;;4985208;28;20084;-43
2021/01/08 06:38:59;;;;;;;2.90;2.60;;;3.90;97.30;;;;;;4976858;28;20070;-42
2021/01/08 06:41:25;;;;;;;3.35;2.75;;;3.80;97.30;;;;;;4986189;28;20072;-42
2021/01/08 06:44:15;;;;;;;3.00;2.70;;;3.90;97.30;;;;;;4975515;28;20485;-43
2021/01/08 06:46:43;;;;;;;3.35;2.83;;;3.80;97.30;;;;;;4985813;28;20054;-42
2021/01/08 06:49:10;;;;;;;2.50;2.30;;;3.80;97.30;;;;;;4976745;28;20014;-43
2021/01/08 06:51:38;;;;;;;4.10;3.00;;;3.80;97.30;;;;;;4986568;28;20066;-43
2021/01/08 06:54:08;;;;;;;4.32;3.22;;;3.80;97.30;;;;;;4968021;28;20011;-44
2021/01/08 06:56:42;;;;;;;4.25;3.33;;;3.80;97.30;;;;;;4967689;28;20031;-42
2021/01/08 06:59:18;;;;;;;4.53;3.55;;;3.80;97.40;;;;;;4972772;28;20441;-43
2021/01/08 07:02:09;;;;;;;3.88;3.47;;;3.80;97.40;;;;;;4973579;28;20389;-42
2021/01/08 07:04:38;;;;;;;4.00;3.60;;;3.80;97.50;;;;;;4971251;28;20146;-43
2021/01/08 07:07:20;;;;;;;3.40;2.90;;;3.80;97.50;;;;;;4986767;28;20054;-43
2021/01/08 07:09:47;;;;;;;3.33;3.03;;;3.80;97.50;;;;;;4968078;28;20030;-43
2021/01/08 07:12:12;;;;;;;4.05;3.53;;;3.90;97.40;;;;;;4969595;28;20039;-43
2021/01/08 07:14:39;;;;;;;3.83;3.42;;;3.80;97.40;;;;;;4982713;28;20061;-43
2021/01/08 07:17:09;;;;;;;4.07;3.67;;;3.80;97.40;;;;;;4970737;28;20034;-43
2021/01/08 07:19:39;;;;;;;5.60;3.72;;;3.90;97.40;;;;;;4973684;28;20027;-43
2021/01/08 07:22:05;;;;;;;5.38;4.15;;;3.90;97.40;;;;;;4971106;28;20034;-43
2021/01/08 07:24:37;;;;;;;5.15;4.10;;;3.90;97.50;;;;;;4980536;28;20037;-43
2021/01/08 07:27:33;;;;;;;4.30;3.90;;;3.90;97.50;;;;;;4970250;28;20671;-43
2021/01/08 07:29:59;;;;;;;4.97;4.47;;;3.90;97.50;;;;;;4975012;28;20093;-43
2021/01/08 07:32:33;;;;;;;4.35;3.95;;;3.90;97.50;;;;;;4973654;28;20080;-42
2021/01/08 07:35:12;;;;;;;6.60;3.85;;;3.90;97.50;;;;;;4982596;28;20375;-42
2021/01/08 07:38:06;;;;;;;5.20;4.15;;;3.90;97.50;;;;;;4970921;28;20511;-42
2021/01/08 07:40:40;;;;;;;5.60;4.00;;;3.90;97.50;;;;;;4977046;28;20486;-45
2021/01/08 07:43:10;;;;;;;5.95;4.40;;;3.90;97.50;;;;;;4990551;28;20026;-43
2021/01/08 07:45:45;;;;;;;5.55;4.68;;;3.90;97.50;;;;;;4977479;28;20042;-42
2021/01/08 07:48:23;;;;;;;5.88;4.55;;;3.90;97.60;;;;;;4989632;28;20462;-42
2021/01/08 07:50:50;;;;;;;4.47;3.95;;;3.90;97.60;;;;;;4977915;28;20453;-43
2021/01/08 07:53:42;;;;;;;5.22;3.50;;;3.90;97.60;;;;;;4989834;28;20041;-43
2021/01/08 07:56:11;;;;;;;4.95;3.45;;;4.00;97.60;;;;;;4977906;28;20033;-43
2021/01/08 07:58:37;;;;;;;4.72;3.90;;;4.00;97.50;;;;;;4990337;28;20134;-43
2021/01/08 08:01:07;;;;;;;5.43;3.95;;;4.00;97.50;;;;;;4976905;28;20358;-42
2021/01/08 08:03:33;;;;;;;4.18;3.50;;;4.00;97.50;;;;;;4989483;28;20054;-44
2021/01/08 08:06:05;;;;;;;3.83;3.33;;;4.00;97.50;;;;;;4976114;28;20753;-43
2021/01/08 08:08:32;;;;;;;5.57;4.18;;;4.00;97.50;;;;;;4967863;28;20027;-43
2021/01/08 08:11:08;;;;;;;7.07;6.05;;;4.00;97.50;;;;;;4971756;28;20027;-43
2021/01/08 08:13:33;;;;;;;6.80;5.22;;;4.10;97.50;;;;;;4986734;28;20037;-43
2021/01/08 08:15:59;;;;;;;6.55;5.63;;;4.10;97.40;;;;;;4978630;28;20356;-43
2021/01/08 08:18:24;;;;;;;7.50;6.13;;;4.10;97.40;;;;;;4983842;28;20057;-43
2021/01/08 08:21:05;;;;;;;7.25;6.05;;;4.10;97.30;;;;;;4980914;28;20429;-45
2021/01/08 08:23:31;;;;;;;7.30;5.55;;;4.10;97.20;;;;;;4983028;28;20851;-43
2021/01/08 08:25:57;;;;;;;6.07;4.95;;;4.10;97.20;;;;;;4981290;28;20038;-43
2021/01/08 08:28:22;;;;;;;6.82;4.93;;;4.10;97.20;;;;;;4980544;28;20060;-45
2021/01/08 08:30:51;;;;;;;6.30;4.63;;;4.10;97.30;;;;;;4984395;28;20447;-44
2021/01/08 08:33:21;;;;;;;5.03;4.45;;;4.00;97.30;;;;;;4979129;28;20073;-44
2021/01/08 08:35:47;;;;;;;6.35;4.85;;;4.00;97.40;;;;;;4985597;28;20018;-44
2021/01/08 08:38:12;;;;;;;6.43;4.75;;;4.00;97.40;;;;;;4976837;28;20070;-43
2021/01/08 08:40:38;;;;;;;5.47;4.32;;;4.00;97.40;;;;;;4986292;28;20518;-43
2021/01/08 08:43:03;;;;;;;5.45;4.60;;;4.00;97.30;;;;;;4974486;28;20118;-43
2021/01/08 08:45:33;;;;;;;5.97;4.50;;;4.00;97.40;;;;;;4983532;28;20356;-42
2021/01/08 08:48:06;;;;;;;6.32;4.15;;;4.00;97.40;;;;;;4982540;28;20019;-41
2021/01/08 08:50:33;;;;;;;5.90;4.90;;;4.00;97.50;;;;;;4973725;28;20031;-43
2021/01/08 08:53:10;;;;;;;7.03;5.72;;;4.00;97.40;;;;;;4977146;28;20050;-43
2021/01/08 08:55:35;;;;;;;8.15;5.80;;;4.00;97.50;;;;;;4969921;28;20106;-43
2021/01/08 08:58:11;;;;;;;7.68;5.63;;;4.00;97.50;;;;;;4981366;28;20512;-43
2021/01/08 09:00:41;;;;;;;7.22;5.45;;;4.10;97.50;;;;;;4969137;28;20039;-42
2021/01/08 09:03:24;;;;;;;7.78;5.80;;;4.10;97.40;;;;;;4981845;28;20146;-44
2021/01/08 09:05:51;;;;;;;6.82;5.13;;;4.20;97.40;;;;;;4969336;28;20035;-43
2021/01/08 09:08:31;;;;;;;6.85;5.38;;;4.20;97.30;;;;;;4980859;28;20030;-43
2021/01/08 09:11:15;;;;;;;7.85;5.93;;;4.20;97.30;;;;;;4969338;28;20248;-43
2021/01/08 09:14:01;;;;;;;8.93;6.13;;;4.20;97.20;;;;;;4975894;28;20088;-43
2021/01/08 09:16:34;;;;;;;8.60;6.07;;;4.20;97.30;;;;;;4988000;28;20030;-42
2021/01/08 09:19:02;;;;;;;10.77;7.07;;;4.20;97.20;;;;;;4983180;28;20035;-42
2021/01/08 09:21:32;;;;;;;11.30;7.40;;;4.30;97.20;;;;;;4968762;28;20125;-42
2021/01/08 09:24:03;;;;;;;9.35;6.93;;;4.30;97.10;;;;;;4981160;28;20030;-42
2021/01/08 09:26:30;;;;;;;8.63;6.95;;;4.30;97.00;;;;;;4968286;28;20109;-43
2021/01/08 09:28:56;;;;;;;9.25;6.82;;;4.30;96.80;;;;;;4979556;28;20023;-42
2021/01/08 09:31:41;;;;;;;9.20;6.20;;;4.30;96.80;;;;;;4984890;28;20816;-43
2021/01/08 09:34:07;;;;;;;9.50;6.65;;;4.40;96.90;;;;;;4977603;28;20353;-43
2021/01/08 09:36:37;;;;;;;8.02;6.93;;;4.40;96.80;;;;;;4976680;28;20493;-41
2021/01/08 09:39:09;;;;;;;9.20;6.85;;;4.40;96.70;;;;;;4975754;28;20463;-43
2021/01/08 09:41:36;;;;;;;6.65;5.20;;;4.40;96.80;;;;;;4967812;28;20773;-43
2021/01/08 09:44:04;;;;;;;6.35;5.20;;;4.40;96.70;;;;;;4972704;28;20109;-43
2021/01/08 09:46:29;;;;;;;7.40;5.45;;;4.50;96.70;;;;;;4985447;28;20084;-43
2021/01/08 09:49:05;;;;;;;5.32;4.47;;;4.50;96.60;;;;;;4980723;28;20027;-41
2021/01/08 09:51:31;;;;;;;4.43;3.50;;;4.60;96.50;;;;;;4984464;28;20061;-44
2021/01/08 09:53:57;;;;;;;5.95;4.18;;;4.60;96.50;;;;;;4981315;28;20106;-43
2021/01/08 09:56:23;;;;;;;5.25;4.05;;;4.60;96.40;;;;;;4981827;28;20114;-44
2021/01/08 09:59:10;;;;;;;4.97;3.92;;;4.60;96.20;;;;;;4983783;28;20109;-42
2021/01/08 10:01:54;;;;;;;4.82;3.58;;;4.60;96.20;;;;;;4982500;28;20058;-43
2021/01/08 10:04:29;;;;;;;4.50;3.35;;;4.70;96.10;;;;;;4976705;28;20058;-43
2021/01/08 10:07:07;;;;;;;4.10;3.58;;;4.70;96.10;;;;;;4977840;28;20062;-43
2021/01/08 10:09:52;;;;;;;5.45;3.78;;;4.70;95.90;;;;;;4974601;28;20035;-43
2021/01/08 10:12:19;;;;;;;5.97;3.97;;;4.70;95.90;;;;;;4970592;28;20046;-43
2021/01/08 10:14:45;;;;;;;4.38;3.58;;;4.70;95.90;;;;;;4974947;28;20022;-43
2021/01/08 10:17:17;;;;;;;4.55;3.58;;;4.70;95.90;;;;;;4972787;28;20389;-43
2021/01/08 10:19:45;;;;;;;5.18;4.03;;;4.80;96.00;;;;;;4973869;28;20679;-42
2021/01/08 10:22:13;;;;;;;4.20;3.80;;;4.80;95.90;;;;;;4979063;28;20758;-44
2021/01/08 10:24:38;;;;;;;5.10;3.90;;;4.80;95.70;;;;;;4978552;28;20027;-42
2021/01/08 10:27:04;;;;;;;4.28;3.75;;;4.80;95.80;;;;;;4974297;28;20024;-42
2021/01/08 10:29:37;;;;;;;3.88;3.42;;;4.70;95.60;;;;;;4973549;28;20538;-42
2021/01/08 10:32:09;;;;;;;4.45;3.28;;;4.70;95.60;;;;;;4977209;28;20446;-42
2021/01/08 10:34:39;;;;;;;;;;;4.70;95.70;;;;;;4984419;28;20027;-42
2021/01/08 10:37:05;;;;;;;3.60;2.90;;;4.70;95.70;;;;;;4978634;28;19914;-43
2021/01/08 10:39:31;;;;;;;4.47;3.80;;;4.70;95.70;;;;;;4968742;28;20085;-43
2021/01/08 10:41:57;;;;;;;4.40;3.70;;;4.70;95.70;;;;;;4978766;28;20018;-43
2021/01/08 10:44:22;;;;;;;3.90;3.35;;;4.70;95.80;;;;;;4969295;28;20029;-43
2021/01/08 10:46:48;;;;;;;3.83;3.38;;;4.80;95.80;;;;;;4984480;28;20418;-42
2021/01/08 10:49:13;;;;;;;4.00;3.45;;;4.80;95.80;;;;;;4971940;28;20731;-42
2021/01/08 10:51:39;;;;;;;3.42;2.90;;;4.80;95.80;;;;;;4983866;28;20508;-43
2021/01/08 10:54:05;;;;;;;3.53;3.20;;;4.90;95.80;;;;;;4972275;28;20577;-42
2021/01/08 10:56:31;;;;;;;3.42;2.65;;;4.90;95.80;;;;;;4981644;28;20565;-43
2021/01/08 10:58:56;;;;;;;3.05;2.75;;;5.00;95.80;;;;;;4972595;28;20775;-42
2021/01/08 11:01:23;;;;;;;2.90;2.70;;;5.00;95.80;;;;;;4978786;28;20034;-43
2021/01/08 11:03:48;;;;;;;3.13;2.80;;;5.10;95.60;;;;;;4975587;28;20130;-42
2021/01/08 11:06:20;;;;;;;3.50;3.05;;;5.10;95.50;;;;;;4976334;28;20105;-42
2021/01/08 11:08:46;;;;;;;4.30;2.80;;;5.10;95.40;;;;;;4977913;28;20028;-43
2021/01/08 11:11:14;;;;;;;3.20;2.90;;;5.20;95.30;;;;;;4974271;28;20042;-43
2021/01/08 11:13:40;;;;;;;2.63;2.38;;;5.20;95.30;;;;;;4979784;28;20118;-43
2021/01/08 11:16:06;;;;;;;2.50;2.30;;;5.20;95.20;;;;;;4973075;28;20185;-43
2021/01/08 11:18:32;;;;;;;2.80;2.50;;;5.20;95.10;;;;;;4981024;28;20137;-43
2021/01/08 11:20:57;;;;;;;2.40;2.20;;;5.20;95.10;;;;;;4972259;28;20019;-43
2021/01/08 11:23:25;;;;;;;5.07;3.30;;;5.20;94.90;;;;;;4981931;28;20027;-43
2021/01/08 11:25:51;;;;;;;3.53;3.22;;;5.20;94.70;;;;;;4971034;28;20117;-43
2021/01/08 11:28:16;;;;;;;3.58;2.70;;;5.10;94.50;;;;;;4973037;28;20111;-44
2021/01/08 11:30:43;;;;;;;3.95;3.53;;;5.10;94.70;;;;;;4981936;28;20463;-43
2021/01/08 11:33:08;;;;;;;3.08;2.78;;;5.00;94.70;;;;;;4985095;28;20050;-42
2021/01/08 11:35:34;;;;;;;2.85;2.55;;;4.90;94.80;;;;;;4977097;28;20031;-42
2021/01/08 11:38:00;;;;;;;2.83;2.63;;;4.90;94.80;;;;;;4985475;28;20038;-42
2021/01/08 11:40:25;;;;;;;4.68;3.78;;;4.90;94.90;;;;;;4988462;28;20034;-42
2021/01/08 11:42:51;;;;;;;3.63;3.33;;;4.90;95.10;;;;;;4981650;28;20023;-42
2021/01/08 11:45:16;;;;;;;3.42;3.10;;;4.90;95.10;;;;;;4986166;28;20804;-44
2021/01/08 11:47:42;;;;;;;3.22;2.92;;;5.00;95.10;;;;;;4983824;28;20105;-43
2021/01/08 11:50:08;;;;;;;4.57;3.75;;;4.90;95.10;;;;;;4984162;28;20136;-42
2021/01/08 11:52:34;;;;;;;4.22;2.45;;;4.90;95.10;;;;;;4985347;28;20043;-43
2021/01/08 11:54:59;;;;;;;2.83;2.60;;;5.00;95.00;;;;;;4977766;28;20532;-43
2021/01/08 11:57:26;;;;;;;3.28;2.72;;;5.00;95.00;;;;;;4973306;28;20501;-43
2021/01/08 11:59:52;;;;;;;3.25;2.70;;;5.00;95.10;;;;;;4978833;28;20120;-43
2021/01/08 12:02:18;;;;;;;3.10;2.63;;;5.10;95.00;;;;;;4987653;28;20045;-43
2021/01/08 12:04:43;;;;;;;2.85;2.30;;;5.00;94.90;;;;;;4981869;28;20031;-43
2021/01/08 12:07:09;;;;;;;3.05;2.15;;;5.00;94.50;;;;;;4969976;28;20023;-43
2021/01/08 12:09:34;;;;;;;2.95;1.95;;;5.00;94.50;;;;;;4982014;28;20510;-42
2021/01/08 12:12:04;;;;;;;2.13;1.92;;;5.00;94.50;;;;;;4970280;28;20043;-43
2021/01/08 12:14:31;;;;;;;2.72;2.03;;;5.00;94.60;;;;;;4981570;28;20112;-42
2021/01/08 12:17:03;;;;;;;2.72;2.03;;;5.00;94.80;;;;;;4970241;28;20038;-43
2021/01/08 12:19:29;;;;;;;2.20;2.00;;;5.00;94.80;;;;;;4981860;28;20518;-43
2021/01/08 12:21:54;;;;;;;2.10;1.90;;;5.00;94.80;;;;;;4969927;28;20544;-43
2021/01/08 12:24:20;;;;;;;2.25;2.05;;;5.00;94.80;;;;;;4978575;28;20053;-43
2021/01/08 12:26:51;;;;;;;2.33;2.13;;;5.00;94.90;;;;;;4972538;28;20026;-43
2021/01/08 12:29:16;;;;;;;2.10;1.90;;;5.10;94.90;;;;;;4976986;28;20116;-43
2021/01/08 12:31:42;;;;;;;2.25;1.73;;;5.10;94.90;;;;;;4974909;28;20043;-42
2021/01/08 12:34:07;;;;;;;2.85;2.10;;;5.10;94.90;;;;;;4975102;28;20137;-43
2021/01/08 12:36:33;;;;;;;2.97;2.50;;;5.10;94.80;;;;;;4976162;28;20037;-43
2021/01/08 12:38:58;;;;;;;2.60;2.40;;;5.10;94.70;;;;;;4972210;28;20021;-41
2021/01/08 12:41:24;;;;;;;2.40;2.20;;;5.10;94.50;;;;;;4979371;28;20034;-43
2021/01/08 12:43:49;;;;;;;1.77;1.67;;;5.10;94.60;;;;;;4970891;28;20019;-43
2021/01/08 12:46:19;;;;;;;1.92;1.63;;;5.10;94.70;;;;;;4980080;28;20494;-42
2021/01/08 12:48:45;;;;;;;2.20;2.00;;;5.20;94.80;;;;;;4971412;28;20023;-43
2021/01/08 12:51:10;;;;;;;2.38;1.95;;;5.10;94.70;;;;;;4984710;28;20040;-43
2021/01/08 12:53:36;;;;;;;2.42;2.20;;;5.10;94.70;;;;;;4989078;28;20034;-44
2021/01/08 12:56:03;;;;;;;3.20;2.45;;;5.10;94.70;;;;;;4976879;28;20030;-43
2021/01/08 12:58:31;;;;;;;2.22;2.03;;;5.00;94.60;;;;;;4984970;28;20045;-43
2021/01/08 13:00:56;;;;;;;2.20;2.00;;;4.90;94.70;;;;;;4978861;28;20097;-43
2021/01/08 13:03:22;;;;;;;2.10;1.90;;;4.90;94.70;;;;;;4974639;28;20477;-42